Time;durP1;ratioP1;P1;durP2;ratioP2;P2;SDS_P1;SDS_P2;PMS_P1;PMS_P2;Temp;Humidity;BMP_temperature;BMP_pressure;BME280_temperature;BME280_humidity;BME280_pressure;Samples;Min_cycle;Max_cycle;Signal;HPM_P1;HPM_P2
2021/01/08 00:00:31;;;;;;;24.77;12.10;;;;;;;0.70;78.25;100449.28;5029855;28;20029;-77
2021/01/08 00:02:56;;;;;;;23.85;11.95;;;;;;;0.76;77.79;100453.88;5024449;28;20038;-76
2021/01/08 00:05:22;;;;;;;13.25;9.60;;;;;;;0.80;78.16;100446.22;5030095;28;20037;-79
2021/01/08 00:07:47;;;;;;;24.02;10.43;;;;;;;0.81;78.43;100437.94;5025391;28;20120;-79
2021/01/08 00:10:13;;;;;;;26.13;10.77;;;;;;;0.80;79.07;100430.88;5020625;28;20037;-80
2021/01/08 00:12:38;;;;;;;21.20;10.50;;;;;;;0.81;78.15;100429.03;5020289;28;20022;-80
2021/01/08 00:15:05;;;;;;;22.67;12.32;;;;;;;0.91;78.35;100431.38;5038884;28;20102;-80
2021/01/08 00:17:31;;;;;;;23.17;12.02;;;;;;;0.85;77.91;100423.03;5036681;28;20029;-79
2021/01/08 00:19:57;;;;;;;19.17;11.98;;;;;;;0.84;77.99;100418.69;5038504;28;20040;-79
2021/01/08 00:22:23;;;;;;;21.85;11.98;;;;;;;0.81;77.62;100415.59;5035670;28;20086;-80
2021/01/08 00:24:52;;;;;;;19.10;12.80;;;;;;;0.80;77.98;100417.41;5032503;28;20096;-80
2021/01/08 00:27:20;;;;;;;14.95;11.50;;;;;;;0.82;77.67;100422.63;5027407;28;20028;-79
2021/01/08 00:29:46;;;;;;;20.60;12.77;;;;;;;0.81;77.82;100421.78;5027805;28;20387;-80
2021/01/08 00:32:14;;;;;;;21.58;11.82;;;;;;;0.81;78.14;100418.28;5028814;28;20092;-79
2021/01/08 00:34:40;;;;;;;23.10;11.65;;;;;;;0.69;78.01;100396.50;5016753;28;20033;-83
2021/01/08 00:37:06;;;;;;;25.73;11.70;;;;;;;0.77;77.88;100408.94;5026061;28;20081;-78
2021/01/08 00:39:36;;;;;;;21.92;12.75;;;;;;;0.75;77.53;100400.25;5038438;28;20044;-79
2021/01/08 00:42:06;;;;;;;23.33;12.32;;;;;;;0.71;77.52;100409.75;5040731;28;20029;-82
2021/01/08 00:44:31;;;;;;;23.63;12.88;;;;;;;0.64;77.53;100399.78;5040290;28;20077;-80
2021/01/08 00:46:57;;;;;;;23.00;13.15;;;;;;;0.60;78.04;100403.91;5043337;28;20056;-80
2021/01/08 00:49:24;;;;;;;26.17;12.15;;;;;;;0.51;77.42;100405.94;5064608;28;20028;-80
2021/01/08 00:51:49;;;;;;;23.42;12.48;;;;;;;0.43;77.95;100400.72;5062018;28;20040;-78
2021/01/08 00:54:15;;;;;;;27.65;13.68;;;;;;;0.49;78.79;100408.00;5060394;28;20028;-77
2021/01/08 00:56:53;;;;;;;;;;;;;;;;;;;;;
2021/01/08 00:59:19;;;;;;;23.13;11.77;;;;;;;0.39;77.88;100396.75;5050635;28;20026;-75
2021/01/08 01:01:47;;;;;;;19.27;12.18;;;;;;;0.47;77.65;100409.25;5035014;28;20068;-78
2021/01/08 01:04:12;;;;;;;29.58;12.82;;;;;;;0.46;78.28;100408.38;5078310;28;20028;-77
2021/01/08 01:06:40;;;;;;;22.95;12.70;;;;;;;0.44;78.57;100405.09;5059718;28;20163;-77
2021/01/08 01:09:05;;;;;;;19.75;11.57;;;;;;;0.43;78.54;100406.09;5062552;28;20084;-76
2021/01/08 01:11:31;;;;;;;16.80;10.95;;;;;;;0.42;78.63;100409.00;5071579;28;20040;-75
2021/01/08 01:13:58;;;;;;;17.52;11.00;;;;;;;0.42;79.02;100411.69;5048650;28;20036;-77
2021/01/08 01:16:28;;;;;;;22.73;10.88;;;;;;;0.42;79.16;100404.44;5069185;28;20032;-77
2021/01/08 01:18:56;;;;;;;22.83;11.68;;;;;;;0.41;78.89;100397.41;5063746;28;20601;-78
2021/01/08 01:21:23;;;;;;;19.48;11.80;;;;;;;0.43;79.04;100406.09;5067826;28;20109;-77
2021/01/08 01:23:48;;;;;;;15.98;10.80;;;;;;;0.38;78.14;100399.66;5068481;28;20027;-77
2021/01/08 01:26:14;;;;;;;19.52;11.13;;;;;;;0.36;78.02;100396.34;5038932;28;20025;-78
2021/01/08 01:28:40;;;;;;;15.35;10.68;;;;;;;0.38;78.65;100400.50;5066529;28;20107;-79
2021/01/08 01:31:05;;;;;;;28.42;12.23;;;;;;;0.38;78.40;100400.50;5050917;28;20117;-77
2021/01/08 01:33:31;;;;;;;19.60;11.43;;;;;;;0.37;78.25;100398.84;5027602;28;20096;-76
2021/01/08 01:35:58;;;;;;;14.98;9.55;;;;;;;0.34;78.39;100397.38;5064804;28;20443;-76
2021/01/08 01:38:24;;;;;;;17.92;10.85;;;;;;;0.35;79.42;100406.25;5048172;28;20531;-76
2021/01/08 01:40:50;;;;;;;16.83;10.13;;;;;;;0.31;79.19;100396.94;5060747;28;20020;-75
2021/01/08 01:43:15;;;;;;;16.80;11.43;;;;;;;0.32;78.40;100393.22;5056944;28;20058;-76
2021/01/08 01:45:41;;;;;;;21.42;11.27;;;;;;;0.31;79.32;100394.25;5069224;28;20024;-76
2021/01/08 01:48:08;;;;;;;18.85;11.25;;;;;;;0.31;78.99;100402.34;5036251;28;20057;-77
2021/01/08 01:50:35;;;;;;;16.55;10.02;;;;;;;0.32;79.59;100402.13;5067489;28;20036;-76
2021/01/08 01:53:02;;;;;;;18.90;10.60;;;;;;;0.27;78.91;100388.44;5079847;28;20063;-76
2021/01/08 01:55:29;;;;;;;20.20;11.27;;;;;;;0.32;78.79;100393.22;5058229;28;20028;-76
2021/01/08 01:57:55;;;;;;;16.45;10.80;;;;;;;0.31;78.67;100399.66;5071326;28;20036;-76
2021/01/08 02:00:21;;;;;;;18.85;10.32;;;;;;;0.31;79.51;100402.34;5059181;28;20029;-78
2021/01/08 02:02:55;;;;;;;12.82;9.38;;;;;;;0.32;79.63;100401.28;5074229;28;20127;-76
2021/01/08 02:05:22;;;;;;;24.25;11.55;;;;;;;0.31;79.13;100399.66;5050832;28;20028;-76
2021/01/08 02:08:02;;;;;;;20.20;10.07;;;;;;;0.27;79.25;100398.38;5071663;28;20454;-76
2021/01/08 02:10:34;;;;;;;16.73;8.98;;;;;;;0.29;79.76;100401.69;5092125;28;20017;-77
2021/01/08 02:13:00;;;;;;;13.65;8.15;;;;;;;0.28;79.50;100400.03;5056981;28;20485;-77
2021/01/08 02:15:28;;;;;;;19.77;9.35;;;;;;;0.28;79.71;100403.56;5069394;28;20104;-75
2021/01/08 02:17:54;;;;;;;14.35;9.80;;;;;;;0.31;79.15;100407.72;5080987;28;20082;-76
2021/01/08 02:20:21;;;;;;;12.88;9.38;;;;;;;0.31;79.27;100415.78;5074390;28;20036;-76
2021/01/08 02:22:59;;;;;;;13.63;9.30;;;;;;;0.32;78.92;100406.66;5072663;28;20035;-75
2021/01/08 02:25:29;;;;;;;19.95;11.05;;;;;;;0.33;78.87;100411.03;5060347;28;20029;-77
2021/01/08 02:28:00;;;;;;;15.60;11.02;;;;;;;0.35;79.73;100408.94;5054548;28;20316;-69
2021/01/08 02:30:26;;;;;;;16.27;10.23;;;;;;;0.37;78.91;100412.28;5072260;28;20029;-72
2021/01/08 02:32:53;;;;;;;24.00;10.80;;;;;;;0.40;80.32;100408.38;5060863;28;20060;-74
2021/01/08 02:35:20;;;;;;;23.45;10.45;;;;;;;0.42;80.01;100414.38;5074764;28;20076;-76
2021/01/08 02:37:47;;;;;;;16.45;10.05;;;;;;;0.37;79.92;100409.59;5049121;28;20064;-76
2021/01/08 02:40:15;;;;;;;14.77;9.75;;;;;;;0.44;79.67;100413.16;5074152;28;20128;-77
2021/01/08 02:42:43;;;;;;;15.13;9.15;;;;;;;0.43;79.56;100407.97;5073865;28;20158;-75
2021/01/08 02:45:10;;;;;;;13.40;7.95;;;;;;;0.47;79.58;100415.44;5052364;28;20023;-77
2021/01/08 02:47:36;;;;;;;11.35;8.10;;;;;;;0.48;79.59;100410.88;5045785;28;20065;-75
2021/01/08 02:50:02;;;;;;;14.60;8.55;;;;;;;0.45;79.39;100398.69;5033441;28;20038;-74
2021/01/08 02:52:28;;;;;;;9.30;7.88;;;;;;;0.53;79.95;100403.06;5010666;28;20021;-81
2021/01/08 02:54:56;;;;;;;22.45;11.43;;;;;;;0.55;79.52;100405.53;5015905;28;20095;-80
2021/01/08 02:57:24;;;;;;;34.28;12.48;;;;;;;0.52;79.45;100407.59;5023824;28;20029;-80
2021/01/08 02:59:49;;;;;;;22.48;11.90;;;;;;;0.47;78.99;100393.91;5027763;28;20529;-81
2021/01/08 03:02:15;;;;;;;25.13;12.43;;;;;;;0.48;78.96;100402.81;5037782;28;20033;-79
2021/01/08 03:04:40;;;;;;;22.33;10.95;;;;;;;0.46;79.18;100405.69;5033608;28;20060;-81
2021/01/08 03:07:07;;;;;;;15.88;9.35;;;;;;;0.45;78.67;100401.38;5013962;28;20076;-82
2021/01/08 03:09:32;;;;;;;9.68;8.10;;;;;;;0.48;79.72;100406.34;5034771;28;20075;-81
2021/01/08 03:11:58;;;;;;;15.05;8.93;;;;;;;0.45;79.13;100387.06;5050252;28;20029;-79
2021/01/08 03:14:24;;;;;;;17.00;10.20;;;;;;;0.54;78.85;100401.19;5046421;28;20025;-81
2021/01/08 03:16:50;;;;;;;12.95;9.25;;;;;;;0.52;79.52;100394.13;5048164;28;20016;-80
2021/01/08 03:19:15;;;;;;;20.77;10.77;;;;;;;0.60;78.94;100397.69;5047058;28;20022;-81
2021/01/08 03:21:43;;;;;;;17.42;9.35;;;;;;;0.61;79.21;100391.28;5034462;28;20045;-80
2021/01/08 03:24:09;;;;;;;16.27;9.63;;;;;;;0.63;80.09;100381.16;5028774;28;20468;-80
2021/01/08 03:26:35;;;;;;;14.93;9.95;;;;;;;0.66;78.67;100386.13;5036341;28;20112;-80
2021/01/08 03:29:00;;;;;;;21.95;11.77;;;;;;;0.67;78.91;100382.38;5039520;28;20531;-82
2021/01/08 03:31:25;;;;;;;12.80;9.50;;;;;;;0.67;79.43;100385.09;5027735;28;20034;-80
2021/01/08 03:33:51;;;;;;;12.43;9.48;;;;;;;0.66;79.08;100383.44;5031173;28;20037;-81
2021/01/08 03:36:16;;;;;;;16.30;10.05;;;;;;;0.65;78.97;100377.22;5025460;28;20052;-82
2021/01/08 03:38:42;;;;;;;13.95;9.80;;;;;;;0.61;79.97;100372.44;5030475;28;20030;-81
2021/01/08 03:41:08;;;;;;;17.90;10.00;;;;;;;0.61;80.48;100370.56;5012174;28;20033;-81
2021/01/08 03:43:33;;;;;;;12.77;8.90;;;;;;;0.58;79.69;100375.53;5006442;28;20034;-82
2021/01/08 03:45:59;;;;;;;15.23;9.52;;;;;;;0.58;80.24;100367.47;5032591;28;20112;-81
2021/01/08 03:48:24;;;;;;;11.98;8.88;;;;;;;0.57;80.31;100360.41;5033096;28;20061;-83
2021/01/08 03:50:49;;;;;;;13.73;8.70;;;;;;;0.60;80.48;100368.06;5015724;28;20472;-83
2021/01/08 03:53:15;;;;;;;20.38;9.48;;;;;;;0.61;80.28;100372.44;5035433;28;20156;-84
2021/01/08 03:55:40;;;;;;;15.10;9.82;;;;;;;0.61;80.54;100367.06;4997154;28;20109;-84
2021/01/08 03:58:05;;;;;;;18.52;11.00;;;;;;;0.61;79.93;100373.25;5038050;28;20032;-83
2021/01/08 04:00:31;;;;;;;24.73;10.15;;;;;;;0.60;80.79;100366.25;5032257;28;20029;-82
2021/01/08 04:02:56;;;;;;;14.23;10.07;;;;;;;0.60;80.84;100368.06;5032206;28;20025;-81
2021/01/08 04:05:22;;;;;;;13.45;9.68;;;;;;;0.55;79.96;100355.22;5017790;28;20391;-84
2021/01/08 04:07:47;;;;;;;21.33;10.50;;;;;;;0.56;80.88;100358.78;5026140;28;20085;-82
2021/01/08 04:10:12;;;;;;;15.27;9.85;;;;;;;0.51;80.20;100365.59;5029811;28;20025;-82
2021/01/08 04:12:38;;;;;;;17.10;9.75;;;;;;;0.50;80.17;100371.97;5032902;28;20037;-80
2021/01/08 04:15:04;;;;;;;14.20;9.48;;;;;;;0.46;79.99;100367.22;5015278;28;20179;-81
2021/01/08 04:17:29;;;;;;;9.60;8.82;;;;;;;0.41;79.57;100357.06;5029877;28;20041;-80
2021/01/08 04:19:55;;;;;;;13.10;9.07;;;;;;;0.34;80.47;100356.19;5012443;28;22286;-80
2021/01/08 04:22:20;;;;;;;11.68;8.75;;;;;;;0.27;80.81;100356.16;5021843;28;20083;-80
2021/01/08 04:24:45;;;;;;;13.25;9.02;;;;;;;0.25;80.81;100363.59;5007600;28;20424;-78
2021/01/08 04:27:11;;;;;;;17.13;8.95;;;;;;;0.22;80.87;100368.53;5040050;28;20085;-79
2021/01/08 04:29:36;;;;;;;13.23;8.63;;;;;;;0.27;80.40;100371.47;5032777;28;20029;-80
2021/01/08 04:32:02;;;;;;;14.30;10.52;;;;;;;0.28;80.30;100359.69;5027384;28;20029;-80
2021/01/08 04:34:27;;;;;;;15.77;9.38;;;;;;;0.29;81.20;100358.66;5014560;28;20056;-80
2021/01/08 04:36:52;;;;;;;13.63;9.73;;;;;;;0.25;80.59;100343.94;5037207;28;20026;-83
2021/01/08 04:39:18;;;;;;;15.45;10.05;;;;;;;0.28;81.18;100348.94;5020785;28;20052;-83
2021/01/08 04:41:43;;;;;;;12.18;9.90;;;;;;;0.26;81.25;100337.53;5029592;28;20021;-79
2021/01/08 04:44:09;;;;;;;15.38;9.50;;;;;;;0.28;80.73;100340.88;5015065;28;20060;-80
2021/01/08 04:46:35;;;;;;;11.27;8.88;;;;;;;0.29;81.24;100339.81;5030557;28;20032;-80
2021/01/08 04:49:05;;;;;;;8.10;7.00;;;;;;;0.26;81.48;100337.53;5049251;28;20025;-80
2021/01/08 04:51:34;;;;;;;5.78;5.35;;;;;;;0.28;80.49;100343.56;5055805;28;21579;-79
2021/01/08 04:53:59;;;;;;;6.15;5.65;;;;;;;0.22;80.82;100330.88;5067552;28;20025;-81
2021/01/08 04:56:26;;;;;;;5.93;5.50;;;;;;;0.23;80.67;100346.00;5038911;28;20033;-81
2021/01/08 04:58:53;;;;;;;6.25;5.90;;;;;;;0.13;80.79;100344.53;5038534;28;20047;-82
2021/01/08 05:01:19;;;;;;;6.78;4.82;;;;;;;0.13;81.64;100349.03;5034734;28;20033;-80
2021/01/08 05:03:44;;;;;;;5.78;3.63;;;;;;;0.09;80.98;100348.63;5067663;28;20056;-80
2021/01/08 05:06:10;;;;;;;2.35;2.13;;;;;;;0.06;81.50;100349.03;5072445;28;20024;-80
2021/01/08 05:08:35;;;;;;;2.15;2.05;;;;;;;0.07;81.37;100345.28;5070105;28;20033;-80
2021/01/08 05:11:21;;;;;;;2.00;1.90;;;;;;;0.07;81.01;100345.28;5037652;28;20382;-83
2021/01/08 05:13:55;;;;;;;0.80;0.80;;;;;;;0.06;81.57;100343.66;5036586;28;20094;-83
2021/01/08 05:16:22;;;;;;;1.05;1.00;;;;;;;0.08;80.67;100340.75;5071259;28;20029;-81
2021/01/08 05:18:48;;;;;;;3.70;3.28;;;;;;;0.09;81.41;100342.41;5053645;28;20024;-80
2021/01/08 05:21:14;;;;;;;2.95;2.75;;;;;;;0.10;80.92;100334.16;5073792;28;20028;-83
2021/01/08 05:23:40;;;;;;;2.08;1.98;;;;;;;0.21;81.29;100340.81;5077139;28;20020;-82
2021/01/08 05:26:06;;;;;;;1.77;1.67;;;;;;;0.35;81.44;100347.06;5055689;28;20024;-82
2021/01/08 05:28:31;;;;;;;1.90;1.70;;;;;;;0.43;81.45;100341.53;5056724;28;20043;-83
2021/01/08 05:30:57;;;;;;;1.08;0.98;;;;;;;0.48;81.52;100347.16;5040693;28;20032;-82
2021/01/08 05:33:23;;;;;;;1.50;1.20;;;;;;;0.54;80.94;100341.97;5081245;28;20516;-83
2021/01/08 05:35:50;;;;;;;0.68;0.68;;;;;;;0.56;80.81;100335.38;5072285;28;20028;-81
2021/01/08 05:38:21;;;;;;;1.17;1.10;;;;;;;0.64;80.45;100342.41;5073536;28;20966;-80
2021/01/08 05:40:47;;;;;;;2.13;1.90;;;;;;;0.63;81.02;100338.09;5078246;28;20035;-80
2021/01/08 05:43:13;;;;;;;3.42;3.22;;;;;;;0.66;80.79;100338.50;5056969;28;21771;-80
2021/01/08 05:45:38;;;;;;;3.65;3.38;;;;;;;0.64;80.02;100335.19;5076260;28;20056;-82
2021/01/08 05:48:05;;;;;;;5.10;4.68;;;;;;;0.61;80.13;100332.06;5078285;28;20052;-81
2021/01/08 05:50:32;;;;;;;6.05;5.45;;;;;;;0.56;80.44;100331.88;5068731;28;20028;-80
2021/01/08 05:53:06;;;;;;;4.13;3.92;;;;;;;0.48;80.19;100333.69;5069399;28;20036;-80
2021/01/08 05:55:36;;;;;;;5.40;5.00;;;;;;;0.40;80.30;100333.88;5056175;28;20089;-81
2021/01/08 05:58:23;;;;;;;5.50;4.80;;;;;;;0.33;80.25;100339.22;5048576;28;20029;-81
2021/01/08 06:00:58;;;;;;;3.75;3.42;;;;;;;0.24;79.82;100339.59;5069073;28;20040;-81
2021/01/08 06:03:24;;;;;;;2.35;2.25;;;;;;;0.20;80.54;100338.34;5069497;28;20029;-83
2021/01/08 06:05:57;;;;;;;1.75;1.65;;;;;;;0.14;80.36;100340.78;5074476;28;20054;-81
2021/01/08 06:08:26;;;;;;;3.53;1.58;;;;;;;0.11;79.77;100338.50;5068361;28;20031;-80
2021/01/08 06:10:54;;;;;;;1.70;1.60;;;;;;;0.07;80.48;100345.28;5077201;28;20036;-78
2021/01/08 06:13:24;;;;;;;1.33;1.20;;;;;;;0.03;79.80;100343.22;5066183;28;20467;-78
2021/01/08 06:15:52;;;;;;;1.05;0.98;;;;;;;0.01;80.89;100346.09;5062514;28;20050;-79
2021/01/08 06:18:19;;;;;;;1.77;1.67;;;;;;;0.04;79.98;100350.25;5074686;28;20056;-78
2021/01/08 06:20:47;;;;;;;1.52;1.42;;;;;;;0.10;80.22;100349.44;5050182;28;20059;-78
2021/01/08 06:23:35;;;;;;;0.90;0.90;;;;;;;0.22;80.65;100352.41;5076249;28;20079;-79
2021/01/08 06:26:02;;;;;;;0.70;0.50;;;;;;;0.30;81.14;100344.16;5064899;28;20031;-80
2021/01/08 06:28:40;;;;;;;1.13;1.10;;;;;;;0.44;81.44;100345.88;5054276;28;20028;-82
2021/01/08 06:31:11;;;;;;;1.20;1.17;;;;;;;0.58;81.43;100354.00;5068956;28;20098;-82
2021/01/08 06:33:38;;;;;;;0.73;0.73;;;;;;;0.71;81.36;100362.13;5075878;28;20020;-82
2021/01/08 06:36:28;;;;;;;0.80;0.60;;;;;;;0.85;80.94;100358.44;5070802;28;20096;-82
2021/01/08 06:38:59;;;;;;;0.70;0.70;;;;;;;0.95;80.43;100354.50;5047349;28;20024;-81
2021/01/08 06:41:25;;;;;;;0.43;0.43;;;;;;;1.04;80.44;100358.69;5045058;28;20028;-78
2021/01/08 06:44:01;;;;;;;1.50;1.42;;;;;;;1.07;79.57;100360.97;5070600;28;20039;-81
2021/01/08 06:46:29;;;;;;;0.60;0.60;;;;;;;1.06;79.77;100362.00;5074705;28;20598;-81
2021/01/08 06:49:15;;;;;;;1.48;1.38;;;;;;;1.10;80.37;100371.31;5071365;28;20446;-80
2021/01/08 06:51:43;;;;;;;0.88;0.60;;;;;;;1.08;79.98;100364.47;5066959;28;20074;-82
2021/01/08 06:54:09;;;;;;;0.90;0.90;;;;;;;1.13;79.73;100367.41;5040399;28;20025;-81
2021/01/08 06:56:42;;;;;;;1.13;1.00;;;;;;;1.15;80.59;100374.22;5079320;28;20468;-83
2021/01/08 06:59:12;;;;;;;1.10;1.10;;;;;;;1.18;80.71;100379.22;5074129;28;20539;-81
2021/01/08 07:01:41;;;;;;;1.33;1.23;;;;;;;1.28;80.59;100370.72;5084864;28;20028;-80
2021/01/08 07:04:10;;;;;;;0.93;0.93;;;;;;;1.37;80.88;100371.34;5090541;28;20023;-80
2021/01/08 07:06:40;;;;;;;0.80;0.80;;;;;;;1.47;80.25;100374.44;5067417;28;20083;-79
2021/01/08 07:09:07;;;;;;;0.60;0.60;;;;;;;1.54;80.19;100371.78;5031517;28;20033;-77
2021/01/08 07:11:34;;;;;;;1.10;1.05;;;;;;;1.65;79.93;100376.53;5070050;28;20017;-81
2021/01/08 07:14:08;;;;;;;1.27;1.17;;;;;;;1.77;79.86;100378.59;5077040;28;20028;-78
2021/01/08 07:16:39;;;;;;;1.15;1.15;;;;;;;1.82;79.46;100376.91;5049120;28;20035;-79
2021/01/08 07:19:13;;;;;;;0.95;0.95;;;;;;;1.91;79.26;100372.97;5072511;28;20056;-78
2021/01/08 07:21:47;;;;;;;1.40;0.80;;;;;;;1.97;79.32;100375.88;5078674;28;20436;-78
2021/01/08 07:24:14;;;;;;;1.65;0.93;;;;;;;1.98;79.56;100374.84;5070665;28;20020;-79
2021/01/08 07:26:40;;;;;;;0.73;0.73;;;;;;;2.04;78.80;100376.69;5055515;28;20017;-79
2021/01/08 07:29:07;;;;;;;0.90;0.90;;;;;;;2.09;79.41;100374.19;5035986;28;20024;-79
2021/01/08 07:31:35;;;;;;;1.65;1.55;;;;;;;2.13;79.15;100378.09;5050901;28;20111;-79
2021/01/08 07:34:11;;;;;;;1.42;1.33;;;;;;;2.15;79.91;100380.63;5060673;28;20029;-80
2021/01/08 07:36:37;;;;;;;1.00;0.95;;;;;;;2.20;78.59;100383.50;5053092;28;20021;-80
2021/01/08 07:39:05;;;;;;;2.38;2.28;;;;;;;2.25;79.56;100395.31;5058880;28;20036;-81
2021/01/08 07:41:32;;;;;;;2.40;2.30;;;;;;;2.27;78.81;100392.41;5059034;28;20033;-81
2021/01/08 07:43:58;;;;;;;0.98;0.98;;;;;;;2.32;78.81;100394.47;5040493;28;20032;-80
2021/01/08 07:46:34;;;;;;;1.33;1.27;;;;;;;2.37;79.20;100397.38;5054738;28;20025;-81
2021/01/08 07:49:01;;;;;;;;;;;;;;;2.41;78.43;100401.28;5072165;28;20044;-77
2021/01/08 07:51:47;;;;;;;1.58;1.42;;;;;;;2.42;78.82;100408.34;5081993;28;19991;-80
2021/01/08 07:54:14;;;;;;;2.85;1.00;;;;;;;2.41;78.70;100410.22;5084100;28;20025;-81
2021/01/08 07:57:03;;;;;;;3.42;1.88;;;;;;;2.43;78.94;100399.19;5062546;28;20066;-78
2021/01/08 07:59:29;;;;;;;4.65;3.55;;;;;;;2.47;78.52;100408.53;5072064;28;20088;-78
2021/01/08 08:01:55;;;;;;;3.42;2.28;;;;;;;2.48;78.21;100410.19;5065065;28;20375;-75
2021/01/08 08:04:28;;;;;;;12.00;3.47;;;;;;;2.48;78.02;100404.78;5043957;28;20613;-76
2021/01/08 08:06:56;;;;;;;4.10;2.67;;;;;;;2.45;77.95;100402.50;5057509;28;20118;-79
2021/01/08 08:09:22;;;;;;;5.07;2.60;;;;;;;2.47;78.29;100402.28;5065855;28;20088;-79
2021/01/08 08:11:47;;;;;;;4.80;3.97;;;;;;;2.58;77.79;100421.34;5054304;28;20082;-81
2021/01/08 08:14:19;;;;;;;3.95;3.65;;;;;;;2.50;78.23;100402.72;5065046;28;20437;-78
2021/01/08 08:16:45;;;;;;;3.60;3.35;;;;;;;2.56;78.22;100418.06;5064598;28;20024;-81
2021/01/08 08:19:13;;;;;;;2.85;2.65;;;;;;;2.60;78.52;100421.97;5043599;28;20494;-76
2021/01/08 08:21:48;;;;;;;1.65;1.55;;;;;;;2.65;78.09;100423.22;5065559;28;20031;-78
2021/01/08 08:24:16;;;;;;;;;;;;;;;2.75;77.82;100437.91;5055153;28;20383;-78
2021/01/08 08:26:45;;;;;;;1.92;1.65;;;;;;;2.72;77.83;100432.94;5058457;28;19912;-78
2021/01/08 08:29:13;;;;;;;2.97;2.88;;;;;;;2.70;78.12;100429.66;5064940;28;20016;-78
2021/01/08 08:31:45;;;;;;;4.20;3.90;;;;;;;2.70;78.21;100426.09;5049066;28;20032;-78
2021/01/08 08:34:11;;;;;;;5.95;5.30;;;;;;;2.76;77.96;100433.34;5051457;28;20024;-78
2021/01/08 08:37:11;;;;;;;4.88;4.50;;;;;;;2.71;77.37;100419.66;5058476;28;20486;-77
2021/01/08 08:39:37;;;;;;;3.22;3.03;;;;;;;2.82;78.25;100451.41;5039970;28;20868;-79
2021/01/08 08:42:03;;;;;;;3.22;3.03;;;;;;;2.86;77.46;100449.94;5047680;28;20111;-79
2021/01/08 08:44:41;;;;;;;3.80;3.60;;;;;;;2.83;78.15;100444.13;5033212;28;20025;-79
2021/01/08 08:47:14;;;;;;;4.15;3.40;;;;;;;2.80;77.39;100445.38;5065178;28;20040;-82
2021/01/08 08:49:44;;;;;;;4.30;4.05;;;;;;;2.87;77.77;100448.88;5012590;28;20053;-79
2021/01/08 08:52:09;;;;;;;2.40;2.30;;;;;;;2.83;77.38;100447.63;5063154;28;20034;-78
2021/01/08 08:54:38;;;;;;;3.58;3.28;;;;;;;2.92;77.44;100454.47;5064918;28;20036;-75
2021/01/08 08:57:09;;;;;;;4.18;3.00;;;;;;;2.92;77.89;100450.94;5029669;28;20042;-78
2021/01/08 08:59:42;;;;;;;3.67;3.33;;;;;;;2.99;78.37;100453.59;5042514;28;20120;-81
2021/01/08 09:02:29;;;;;;;3.13;2.50;;;;;;;3.08;77.52;100455.84;5041317;28;20036;-77
2021/01/08 09:05:06;;;;;;;2.85;2.65;;;;;;;3.10;77.45;100452.94;5044810;28;20032;-76
2021/01/08 09:07:40;;;;;;;6.60;4.50;;;;;;;3.15;77.18;100466.63;5054006;28;20032;-77
2021/01/08 09:10:18;;;;;;;5.18;4.28;;;;;;;3.14;78.08;100462.28;5062361;28;20037;-78
2021/01/08 09:13:15;;;;;;;3.45;2.55;;;;;;;3.20;77.43;100472.22;5060738;28;20068;-78
2021/01/08 09:16:03;;;;;;;2.63;2.40;;;;;;;3.23;78.07;100466.38;5059842;28;20106;-77
2021/01/08 09:18:58;;;;;;;2.00;1.90;;;;;;;3.34;76.99;100474.84;5052301;28;20048;-76
2021/01/08 09:21:31;;;;;;;1.65;1.55;;;;;;;3.27;77.19;100456.78;5062684;28;20033;-77
2021/01/08 09:24:15;;;;;;;1.63;1.52;;;;;;;3.41;77.55;100475.63;5069415;28;20028;-78
2021/01/08 09:26:44;;;;;;;1.35;1.23;;;;;;;3.37;77.41;100469.00;5045732;28;20027;-77
2021/01/08 09:29:20;;;;;;;;;;;;;;;;;;;;;
2021/01/08 09:31:55;;;;;;;4.35;3.35;;;;;;;3.59;77.36;100489.25;5056372;28;20020;-77
2021/01/08 09:38:02;;;;;;;;;;;;;;;;;;;;;
2021/01/08 09:40:43;;;;;;;5.75;5.25;;;;;;;3.35;76.58;100473.81;5069075;28;20017;-78
2021/01/08 09:43:23;;;;;;;5.15;4.68;;;;;;;3.41;76.73;100495.38;5045998;28;20494;-78
2021/01/08 09:46:03;;;;;;;3.65;3.40;;;;;;;3.48;76.99;100498.03;5038142;28;20032;-78
2021/01/08 09:48:31;;;;;;;4.30;3.90;;;;;;;3.47;76.74;100507.19;5055497;28;20044;-78
2021/01/08 09:51:06;;;;;;;4.05;3.75;;;;;;;3.49;76.89;100497.00;5035203;28;20054;-77
2021/01/08 09:53:34;;;;;;;2.60;2.50;;;;;;;3.49;76.63;100502.41;5013376;28;20032;-76
2021/01/08 09:56:16;;;;;;;2.22;2.03;;;;;;;3.57;76.38;100504.84;5053149;28;20494;-77
2021/01/08 09:58:43;;;;;;;5.18;1.70;;;;;;;3.55;76.21;100500.69;5040318;28;20016;-77
2021/01/08 10:01:12;;;;;;;4.22;3.83;;;;;;;3.59;77.00;100513.59;5041263;28;20029;-76
2021/01/08 10:03:38;;;;;;;5.30;4.53;;;;;;;3.55;76.52;100496.13;5043906;28;20372;-78
2021/01/08 10:06:10;;;;;;;4.22;3.88;;;;;;;3.55;76.40;100493.44;5007462;28;20032;-76
2021/01/08 10:08:37;;;;;;;3.10;2.83;;;;;;;3.59;76.34;100496.50;5050036;28;20129;-76
2021/01/08 10:11:04;;;;;;;3.78;3.50;;;;;;;3.64;76.17;100502.94;5070227;28;20039;-75
2021/01/08 10:13:29;;;;;;;3.05;2.85;;;;;;;3.65;76.30;100507.31;5064855;28;20017;-75
2021/01/08 10:15:56;;;;;;;2.88;2.67;;;;;;;3.67;76.14;100505.19;5064696;28;20028;-76
2021/01/08 10:18:36;;;;;;;6.28;3.63;;;;;;;3.73;76.47;100503.50;5050368;28;20044;-76
2021/01/08 10:21:10;;;;;;;5.20;4.10;;;;;;;3.70;76.35;100497.72;5047733;28;20385;-76
2021/01/08 10:23:43;;;;;;;4.32;3.95;;;;;;;3.81;76.10;100516.75;5052395;28;20024;-77
2021/01/08 10:26:10;;;;;;;7.68;5.90;;;;;;;3.75;75.54;100500.56;5064804;28;20082;-78
2021/01/08 10:28:49;;;;;;;7.65;6.47;;;;;;;3.78;75.90;100494.72;5052160;28;20028;-77
2021/01/08 10:31:16;;;;;;;6.03;4.97;;;;;;;3.76;76.17;100492.22;5054352;28;20115;-76
2021/01/08 10:33:42;;;;;;;6.68;5.75;;;;;;;3.80;75.94;100488.03;5034273;28;20352;-76
2021/01/08 10:36:14;;;;;;;6.07;5.22;;;;;;;3.90;75.90;100503.81;5047105;28;20036;-79
2021/01/08 10:38:41;;;;;;;5.30;4.88;;;;;;;3.93;75.74;100503.34;5048665;28;20049;-77
2021/01/08 10:41:19;;;;;;;;;;;;;;;;;;;;;
2021/01/08 10:43:54;;;;;;;6.75;6.20;;;;;;;3.94;75.22;100486.09;5064885;28;20016;-79
2021/01/08 10:46:49;;;;;;;7.95;7.15;;;;;;;4.17;75.31;100514.41;5074149;28;20028;-78
2021/01/08 10:49:27;;;;;;;;;;;;;;;;;;;;;
2021/01/08 10:52:11;;;;;;;11.43;7.72;;;;;;;4.12;75.00;100500.72;5023062;28;20776;-77
2021/01/08 10:54:38;;;;;;;7.93;7.13;;;;;;;4.15;74.84;100506.50;5018745;28;20049;-78
2021/01/08 10:57:35;;;;;;;12.10;8.30;;;;;;;4.17;74.31;100503.56;5029972;28;20112;-78
2021/01/08 10:59:52;;;;;;;12.60;7.25;;;;;;;4.17;74.50;100503.56;5012662;28;20041;-77
2021/01/08 11:02:20;;;;;;;11.80;8.85;;;;;;;4.21;74.38;100498.56;5021095;28;20045;-78
2021/01/08 11:04:54;;;;;;;13.48;9.50;;;;;;;4.30;74.30;100506.16;5022984;28;20026;-78
2021/01/08 11:07:29;;;;;;;20.30;10.07;;;;;;;4.24;74.69;100492.69;5014546;28;20475;-77
2021/01/08 11:09:58;;;;;;;13.00;7.93;;;;;;;4.29;74.29;100501.81;5017470;28;20044;-76
2021/01/08 11:12:33;;;;;;;;;;;;;;;;;;;;;
2021/01/08 11:15:08;;;;;;;14.50;8.50;;;;;;;4.47;74.29;100513.72;5017564;28;20029;-75
2021/01/08 11:17:36;;;;;;;12.75;7.80;;;;;;;4.43;74.61;100509.81;5022849;28;20416;-76
2021/01/08 11:20:25;;;;;;;14.80;8.35;;;;;;;4.45;74.27;100504.97;5021320;28;20022;-76
2021/01/08 11:23:03;;;;;;;;;;;;;;;;;;;;;
2021/01/08 11:25:34;;;;;;;7.43;6.70;;;;;;;4.33;73.83;100486.75;5013061;28;20479;-75
2021/01/08 11:28:05;;;;;;;8.05;6.32;;;;;;;4.31;74.09;100482.63;5028257;28;20040;-74
2021/01/08 11:30:40;;;;;;;;;;;;;;;;;;;;;
2021/01/08 11:33:06;;;;;;;9.18;7.63;;;;;;;4.47;74.20;100486.66;5020818;28;20390;-75
2021/01/08 11:35:32;;;;;;;12.18;9.18;;;;;;;4.61;74.12;100507.09;5023960;28;20022;-77
2021/01/08 11:37:57;;;;;;;11.90;7.97;;;;;;;4.75;73.80;100509.69;5010511;28;20026;-74
2021/01/08 11:40:22;;;;;;;8.45;7.50;;;;;;;4.79;73.62;100505.44;5026174;28;20021;-74
2021/01/08 11:42:55;;;;;;;9.07;8.02;;;;;;;4.82;73.59;100511.25;5029346;28;20037;-74
2021/01/08 11:45:26;;;;;;;10.70;8.70;;;;;;;4.82;73.50;100505.00;5016905;28;20036;-74
2021/01/08 11:47:51;;;;;;;14.18;9.63;;;;;;;4.84;73.36;100508.31;5010750;28;20030;-76
2021/01/08 11:50:16;;;;;;;10.35;6.38;;;;;;;4.83;73.32;100503.94;5054640;28;20063;-76
2021/01/08 11:52:42;;;;;;;14.65;9.32;;;;;;;4.84;73.36;100498.31;5043849;28;20028;-75